sensor_id;sensor_type;location;lat;lon;timestamp;P1;durP1;ratioP1;P2;durP2;ratioP2
3704;SDS011;1868;48.918;9.438;2023-03-13T00:02:00;9.23;;;2.20;;
3704;SDS011;1868;48.918;9.438;2023-03-13T00:04:29;12.97;;;4.07;;
3704;SDS011;1868;48.918;9.438;2023-03-13T00:06:57;6.53;;;2.13;;
3704;SDS011;1868;48.918;9.438;2023-03-13T00:09:26;7.90;;;2.20;;
3704;SDS011;1868;48.918;9.438;2023-03-13T00:11:55;6.93;;;2.80;;
3704;SDS011;1868;48.918;9.438;2023-03-13T00:14:23;11.80;;;2.60;;
3704;SDS011;1868;48.918;9.438;2023-03-13T00:16:52;8.93;;;2.47;;
3704;SDS011;1868;48.918;9.438;2023-03-13T00:19:20;15.83;;;2.43;;
3704;SDS011;1868;48.918;9.438;2023-03-13T00:21:48;9.30;;;2.53;;
3704;SDS011;1868;48.918;9.438;2023-03-13T00:24:16;9.67;;;2.50;;
3704;SDS011;1868;48.918;9.438;2023-03-13T00:26:45;13.20;;;2.90;;
3704;SDS011;1868;48.918;9.438;2023-03-13T00:29:14;10.00;;;2.77;;
3704;SDS011;1868;48.918;9.438;2023-03-13T00:31:42;11.97;;;2.33;;
3704;SDS011;1868;48.918;9.438;2023-03-13T00:34:11;8.23;;;2.60;;
3704;SDS011;1868;48.918;9.438;2023-03-13T00:36:39;7.90;;;2.10;;
3704;SDS011;1868;48.918;9.438;2023-03-13T00:39:07;5.80;;;2.10;;
3704;SDS011;1868;48.918;9.438;2023-03-13T00:41:36;8.37;;;2.77;;
3704;SDS011;1868;48.918;9.438;2023-03-13T00:44:05;9.43;;;2.17;;
3704;SDS011;1868;48.918;9.438;2023-03-13T00:46:35;12.03;;;2.40;;
3704;SDS011;1868;48.918;9.438;2023-03-13T00:49:03;9.63;;;2.30;;
3704;SDS011;1868;48.918;9.438;2023-03-13T00:51:32;7.60;;;1.97;;
3704;SDS011;1868;48.918;9.438;2023-03-13T00:54:00;11.87;;;2.27;;
3704;SDS011;1868;48.918;9.438;2023-03-13T00:56:31;6.60;;;2.20;;
3704;SDS011;1868;48.918;9.438;2023-03-13T00:58:59;9.60;;;2.80;;
3704;SDS011;1868;48.918;9.438;2023-03-13T01:01:29;8.50;;;2.07;;
3704;SDS011;1868;48.918;9.438;2023-03-13T01:04:01;7.13;;;2.60;;
3704;SDS011;1868;48.918;9.438;2023-03-13T01:06:32;8.83;;;2.13;;
3704;SDS011;1868;48.918;9.438;2023-03-13T01:09:04;8.33;;;2.30;;
3704;SDS011;1868;48.918;9.438;2023-03-13T01:11:33;10.10;;;2.50;;
3704;SDS011;1868;48.918;9.438;2023-03-13T01:14:05;15.27;;;3.67;;
3704;SDS011;1868;48.918;9.438;2023-03-13T01:16:35;13.13;;;2.23;;
3704;SDS011;1868;48.918;9.438;2023-03-13T01:19:06;12.27;;;2.80;;
3704;SDS011;1868;48.918;9.438;2023-03-13T01:21:38;7.57;;;2.37;;
3704;SDS011;1868;48.918;9.438;2023-03-13T01:24:08;15.87;;;3.30;;
3704;SDS011;1868;48.918;9.438;2023-03-13T01:26:36;11.83;;;2.10;;
3704;SDS011;1868;48.918;9.438;2023-03-13T01:29:04;9.10;;;2.00;;
3704;SDS011;1868;48.918;9.438;2023-03-13T01:31:33;10.73;;;2.70;;
3704;SDS011;1868;48.918;9.438;2023-03-13T01:34:06;6.80;;;1.87;;
3704;SDS011;1868;48.918;9.438;2023-03-13T01:36:36;8.50;;;1.87;;
3704;SDS011;1868;48.918;9.438;2023-03-13T01:39:05;7.20;;;2.13;;
3704;SDS011;1868;48.918;9.438;2023-03-13T01:41:33;13.50;;;2.17;;
3704;SDS011;1868;48.918;9.438;2023-03-13T01:44:03;5.60;;;1.80;;
3704;SDS011;1868;48.918;9.438;2023-03-13T01:46:35;9.43;;;1.87;;
3704;SDS011;1868;48.918;9.438;2023-03-13T01:49:12;5.90;;;1.50;;
3704;SDS011;1868;48.918;9.438;2023-03-13T01:52:01;5.10;;;1.57;;
3704;SDS011;1868;48.918;9.438;2023-03-13T01:54:39;13.10;;;2.50;;
3704;SDS011;1868;48.918;9.438;2023-03-13T01:57:14;3.70;;;1.37;;
3704;SDS011;1868;48.918;9.438;2023-03-13T01:59:47;9.93;;;2.37;;
3704;SDS011;1868;48.918;9.438;2023-03-13T02:02:19;6.10;;;2.00;;
3704;SDS011;1868;48.918;9.438;2023-03-13T02:04:51;8.73;;;2.00;;
3704;SDS011;1868;48.918;9.438;2023-03-13T02:07:24;12.07;;;1.97;;
3704;SDS011;1868;48.918;9.438;2023-03-13T02:09:58;4.37;;;1.50;;
3704;SDS011;1868;48.918;9.438;2023-03-13T02:12:29;3.70;;;1.43;;
3704;SDS011;1868;48.918;9.438;2023-03-13T02:15:01;5.53;;;2.23;;
3704;SDS011;1868;48.918;9.438;2023-03-13T02:17:32;9.53;;;1.80;;
3704;SDS011;1868;48.918;9.438;2023-03-13T02:20:03;6.63;;;1.67;;
3704;SDS011;1868;48.918;9.438;2023-03-13T02:22:34;4.63;;;1.60;;
3704;SDS011;1868;48.918;9.438;2023-03-13T02:25:11;8.20;;;1.93;;
3704;SDS011;1868;48.918;9.438;2023-03-13T02:27:48;8.87;;;2.20;;
3704;SDS011;1868;48.918;9.438;2023-03-13T02:30:20;5.20;;;1.10;;
3704;SDS011;1868;48.918;9.438;2023-03-13T02:32:48;11.23;;;1.90;;
3704;SDS011;1868;48.918;9.438;2023-03-13T02:35:18;5.10;;;1.60;;
3704;SDS011;1868;48.918;9.438;2023-03-13T02:37:49;4.63;;;1.73;;
3704;SDS011;1868;48.918;9.438;2023-03-13T02:40:23;5.70;;;1.43;;
3704;SDS011;1868;48.918;9.438;2023-03-13T02:42:57;9.10;;;1.87;;
3704;SDS011;1868;48.918;9.438;2023-03-13T02:45:28;4.10;;;1.07;;
3704;SDS011;1868;48.918;9.438;2023-03-13T02:47:58;6.27;;;1.73;;
3704;SDS011;1868;48.918;9.438;2023-03-13T02:50:26;8.20;;;1.97;;
3704;SDS011;1868;48.918;9.438;2023-03-13T02:52:55;5.67;;;1.90;;
3704;SDS011;1868;48.918;9.438;2023-03-13T02:55:30;9.60;;;1.47;;
3704;SDS011;1868;48.918;9.438;2023-03-13T02:58:05;8.67;;;2.57;;
3704;SDS011;1868;48.918;9.438;2023-03-13T03:00:36;4.70;;;1.70;;
3704;SDS011;1868;48.918;9.438;2023-03-13T03:03:04;4.03;;;1.50;;
3704;SDS011;1868;48.918;9.438;2023-03-13T03:05:32;5.60;;;1.43;;
3704;SDS011;1868;48.918;9.438;2023-03-13T03:08:01;5.80;;;1.27;;
3704;SDS011;1868;48.918;9.438;2023-03-13T03:10:30;5.60;;;1.63;;
3704;SDS011;1868;48.918;9.438;2023-03-13T03:12:58;5.23;;;1.50;;
3704;SDS011;1868;48.918;9.438;2023-03-13T03:15:28;6.07;;;1.40;;
3704;SDS011;1868;48.918;9.438;2023-03-13T03:17:56;5.37;;;1.27;;
3704;SDS011;1868;48.918;9.438;2023-03-13T03:20:24;3.93;;;1.00;;
3704;SDS011;1868;48.918;9.438;2023-03-13T03:22:52;2.13;;;1.23;;
3704;SDS011;1868;48.918;9.438;2023-03-13T03:25:21;4.10;;;1.00;;
3704;SDS011;1868;48.918;9.438;2023-03-13T03:27:49;2.10;;;0.90;;
3704;SDS011;1868;48.918;9.438;2023-03-13T03:30:17;3.30;;;1.07;;
3704;SDS011;1868;48.918;9.438;2023-03-13T03:32:48;4.43;;;1.10;;
3704;SDS011;1868;48.918;9.438;2023-03-13T03:35:16;9.73;;;1.70;;
3704;SDS011;1868;48.918;9.438;2023-03-13T03:37:44;1.60;;;1.30;;
3704;SDS011;1868;48.918;9.438;2023-03-13T03:40:13;4.00;;;1.27;;
3704;SDS011;1868;48.918;9.438;2023-03-13T03:42:42;3.50;;;1.43;;
3704;SDS011;1868;48.918;9.438;2023-03-13T03:45:10;2.30;;;0.97;;
3704;SDS011;1868;48.918;9.438;2023-03-13T03:47:39;2.83;;;0.90;;
3704;SDS011;1868;48.918;9.438;2023-03-13T03:50:09;3.80;;;0.80;;
3704;SDS011;1868;48.918;9.438;2023-03-13T03:52:48;5.50;;;1.63;;
3704;SDS011;1868;48.918;9.438;2023-03-13T03:55:17;4.73;;;0.73;;
3704;SDS011;1868;48.918;9.438;2023-03-13T03:57:46;2.40;;;1.10;;
3704;SDS011;1868;48.918;9.438;2023-03-13T04:00:23;4.17;;;1.33;;
3704;SDS011;1868;48.918;9.438;2023-03-13T04:02:53;6.07;;;1.10;;
3704;SDS011;1868;48.918;9.438;2023-03-13T04:05:23;5.43;;;1.10;;
3704;SDS011;1868;48.918;9.438;2023-03-13T04:07:51;0.97;;;0.87;;
3704;SDS011;1868;48.918;9.438;2023-03-13T04:10:20;5.70;;;1.50;;
3704;SDS011;1868;48.918;9.438;2023-03-13T04:12:48;3.10;;;1.13;;
3704;SDS011;1868;48.918;9.438;2023-03-13T04:15:17;4.93;;;1.30;;
3704;SDS011;1868;48.918;9.438;2023-03-13T04:17:45;1.33;;;1.00;;
3704;SDS011;1868;48.918;9.438;2023-03-13T04:20:16;7.37;;;1.47;;
3704;SDS011;1868;48.918;9.438;2023-03-13T04:22:46;4.97;;;1.00;;
3704;SDS011;1868;48.918;9.438;2023-03-13T04:25:16;3.70;;;1.30;;
3704;SDS011;1868;48.918;9.438;2023-03-13T04:27:46;4.17;;;1.10;;
3704;SDS011;1868;48.918;9.438;2023-03-13T04:30:15;3.40;;;1.00;;
3704;SDS011;1868;48.918;9.438;2023-03-13T04:33:22;4.23;;;1.10;;
3704;SDS011;1868;48.918;9.438;2023-03-13T04:36:06;2.77;;;0.97;;
3704;SDS011;1868;48.918;9.438;2023-03-13T04:38:55;3.73;;;0.87;;
3704;SDS011;1868;48.918;9.438;2023-03-13T04:41:44;1.30;;;0.87;;
3704;SDS011;1868;48.918;9.438;2023-03-13T04:44:26;1.57;;;1.03;;
3704;SDS011;1868;48.918;9.438;2023-03-13T04:47:13;1.43;;;0.90;;
3704;SDS011;1868;48.918;9.438;2023-03-13T04:49:53;1.13;;;0.70;;
3704;SDS011;1868;48.918;9.438;2023-03-13T04:52:37;3.03;;;0.97;;
3704;SDS011;1868;48.918;9.438;2023-03-13T04:55:39;2.70;;;0.70;;
3704;SDS011;1868;48.918;9.438;2023-03-13T04:58:27;2.00;;;1.20;;
3704;SDS011;1868;48.918;9.438;2023-03-13T05:01:23;1.00;;;0.57;;
3704;SDS011;1868;48.918;9.438;2023-03-13T05:04:15;1.40;;;0.90;;
3704;SDS011;1868;48.918;9.438;2023-03-13T05:07:01;1.80;;;0.63;;
3704;SDS011;1868;48.918;9.438;2023-03-13T05:09:30;2.47;;;0.70;;
3704;SDS011;1868;48.918;9.438;2023-03-13T05:12:18;3.20;;;0.73;;
3704;SDS011;1868;48.918;9.438;2023-03-13T05:14:46;4.80;;;0.90;;
3704;SDS011;1868;48.918;9.438;2023-03-13T05:17:21;1.33;;;0.60;;
3704;SDS011;1868;48.918;9.438;2023-03-13T05:20:04;1.87;;;0.67;;
3704;SDS011;1868;48.918;9.438;2023-03-13T05:22:51;2.30;;;1.07;;
3704;SDS011;1868;48.918;9.438;2023-03-13T05:25:45;1.30;;;0.70;;
3704;SDS011;1868;48.918;9.438;2023-03-13T05:28:15;0.87;;;0.80;;
3704;SDS011;1868;48.918;9.438;2023-03-13T05:30:43;2.97;;;0.70;;
3704;SDS011;1868;48.918;9.438;2023-03-13T05:33:34;0.70;;;0.70;;
3704;SDS011;1868;48.918;9.438;2023-03-13T05:36:21;1.03;;;0.50;;
3704;SDS011;1868;48.918;9.438;2023-03-13T05:39:08;1.90;;;0.63;;
3704;SDS011;1868;48.918;9.438;2023-03-13T05:41:52;0.63;;;0.50;;
3704;SDS011;1868;48.918;9.438;2023-03-13T05:44:45;1.23;;;0.60;;
3704;SDS011;1868;48.918;9.438;2023-03-13T05:47:15;0.87;;;0.50;;
3704;SDS011;1868;48.918;9.438;2023-03-13T05:50:05;1.60;;;0.80;;
3704;SDS011;1868;48.918;9.438;2023-03-13T05:52:54;0.70;;;0.70;;
3704;SDS011;1868;48.918;9.438;2023-03-13T05:55:45;2.10;;;0.60;;
3704;SDS011;1868;48.918;9.438;2023-03-13T05:58:32;0.93;;;0.60;;
3704;SDS011;1868;48.918;9.438;2023-03-13T06:01:30;1.43;;;0.57;;
3704;SDS011;1868;48.918;9.438;2023-03-13T06:04:07;2.20;;;0.63;;
3704;SDS011;1868;48.918;9.438;2023-03-13T06:06:38;2.40;;;0.80;;
3704;SDS011;1868;48.918;9.438;2023-03-13T06:09:06;1.60;;;0.60;;
3704;SDS011;1868;48.918;9.438;2023-03-13T06:11:37;1.03;;;0.43;;
3704;SDS011;1868;48.918;9.438;2023-03-13T06:14:07;1.70;;;0.77;;
3704;SDS011;1868;48.918;9.438;2023-03-13T06:16:45;1.40;;;0.60;;
3704;SDS011;1868;48.918;9.438;2023-03-13T06:19:16;0.80;;;0.80;;
3704;SDS011;1868;48.918;9.438;2023-03-13T06:21:45;2.77;;;0.70;;
3704;SDS011;1868;48.918;9.438;2023-03-13T06:24:13;0.80;;;0.50;;
3704;SDS011;1868;48.918;9.438;2023-03-13T06:26:41;1.47;;;0.50;;
3704;SDS011;1868;48.918;9.438;2023-03-13T06:29:10;1.40;;;0.43;;
3704;SDS011;1868;48.918;9.438;2023-03-13T06:31:38;1.23;;;0.50;;
3704;SDS011;1868;48.918;9.438;2023-03-13T06:34:09;0.80;;;0.63;;
3704;SDS011;1868;48.918;9.438;2023-03-13T06:36:38;0.63;;;0.40;;
3704;SDS011;1868;48.918;9.438;2023-03-13T06:39:07;0.97;;;0.53;;
3704;SDS011;1868;48.918;9.438;2023-03-13T06:41:35;2.43;;;0.60;;
3704;SDS011;1868;48.918;9.438;2023-03-13T06:44:04;0.67;;;0.67;;
3704;SDS011;1868;48.918;9.438;2023-03-13T06:46:32;2.90;;;0.87;;
3704;SDS011;1868;48.918;9.438;2023-03-13T06:49:00;0.50;;;0.40;;
3704;SDS011;1868;48.918;9.438;2023-03-13T06:51:32;0.50;;;0.50;;
3704;SDS011;1868;48.918;9.438;2023-03-13T06:54:00;5.10;;;0.67;;
3704;SDS011;1868;48.918;9.438;2023-03-13T06:56:29;1.50;;;0.70;;
3704;SDS011;1868;48.918;9.438;2023-03-13T06:58:57;0.90;;;0.73;;
3704;SDS011;1868;48.918;9.438;2023-03-13T07:01:26;3.70;;;0.80;;
3704;SDS011;1868;48.918;9.438;2023-03-13T07:03:54;3.00;;;0.60;;
3704;SDS011;1868;48.918;9.438;2023-03-13T07:06:22;1.90;;;0.60;;
3704;SDS011;1868;48.918;9.438;2023-03-13T07:08:53;1.10;;;0.50;;
3704;SDS011;1868;48.918;9.438;2023-03-13T07:11:21;0.80;;;0.80;;
3704;SDS011;1868;48.918;9.438;2023-03-13T07:13:53;4.10;;;0.70;;
3704;SDS011;1868;48.918;9.438;2023-03-13T07:16:40;1.07;;;0.60;;
3704;SDS011;1868;48.918;9.438;2023-03-13T07:19:08;2.50;;;1.27;;
3704;SDS011;1868;48.918;9.438;2023-03-13T07:21:37;1.63;;;0.57;;
3704;SDS011;1868;48.918;9.438;2023-03-13T07:24:06;4.13;;;0.67;;
3704;SDS011;1868;48.918;9.438;2023-03-13T07:26:35;1.03;;;0.50;;
3704;SDS011;1868;48.918;9.438;2023-03-13T07:29:04;0.50;;;0.50;;
3704;SDS011;1868;48.918;9.438;2023-03-13T07:31:32;0.50;;;0.50;;
3704;SDS011;1868;48.918;9.438;2023-03-13T07:34:00;0.60;;;0.60;;
3704;SDS011;1868;48.918;9.438;2023-03-13T07:36:28;0.97;;;0.57;;
3704;SDS011;1868;48.918;9.438;2023-03-13T07:38:57;0.47;;;0.47;;
3704;SDS011;1868;48.918;9.438;2023-03-13T07:41:26;0.50;;;0.50;;
3704;SDS011;1868;48.918;9.438;2023-03-13T07:43:54;0.40;;;0.40;;
3704;SDS011;1868;48.918;9.438;2023-03-13T07:46:23;1.70;;;0.50;;
3704;SDS011;1868;48.918;9.438;2023-03-13T07:48:51;0.80;;;0.63;;
3704;SDS011;1868;48.918;9.438;2023-03-13T07:51:21;0.47;;;0.47;;
3704;SDS011;1868;48.918;9.438;2023-03-13T07:54:08;1.80;;;0.77;;
3704;SDS011;1868;48.918;9.438;2023-03-13T07:56:38;0.40;;;0.40;;
3704;SDS011;1868;48.918;9.438;2023-03-13T07:59:06;0.97;;;0.80;;
3704;SDS011;1868;48.918;9.438;2023-03-13T08:01:35;0.40;;;0.40;;
3704;SDS011;1868;48.918;9.438;2023-03-13T08:04:03;0.40;;;0.40;;
3704;SDS011;1868;48.918;9.438;2023-03-13T08:06:33;0.93;;;0.33;;
3704;SDS011;1868;48.918;9.438;2023-03-13T08:09:02;1.07;;;0.60;;
3704;SDS011;1868;48.918;9.438;2023-03-13T08:11:30;0.90;;;0.50;;
3704;SDS011;1868;48.918;9.438;2023-03-13T08:13:59;1.60;;;0.43;;
3704;SDS011;1868;48.918;9.438;2023-03-13T08:16:28;1.40;;;0.60;;
3704;SDS011;1868;48.918;9.438;2023-03-13T08:19:01;1.57;;;0.50;;
3704;SDS011;1868;48.918;9.438;2023-03-13T08:21:32;1.70;;;0.83;;
3704;SDS011;1868;48.918;9.438;2023-03-13T08:24:02;1.20;;;0.50;;
3704;SDS011;1868;48.918;9.438;2023-03-13T08:26:33;0.53;;;0.53;;
3704;SDS011;1868;48.918;9.438;2023-03-13T08:29:06;2.20;;;0.50;;
3704;SDS011;1868;48.918;9.438;2023-03-13T08:31:37;0.93;;;0.87;;
3704;SDS011;1868;48.918;9.438;2023-03-13T08:34:10;1.10;;;0.50;;
3704;SDS011;1868;48.918;9.438;2023-03-13T08:36:39;0.40;;;0.40;;
3704;SDS011;1868;48.918;9.438;2023-03-13T08:39:08;0.50;;;0.43;;
3704;SDS011;1868;48.918;9.438;2023-03-13T08:41:39;0.40;;;0.40;;
3704;SDS011;1868;48.918;9.438;2023-03-13T08:44:10;2.30;;;0.57;;
3704;SDS011;1868;48.918;9.438;2023-03-13T08:46:40;0.43;;;0.43;;
3704;SDS011;1868;48.918;9.438;2023-03-13T08:49:09;0.53;;;0.53;;
3704;SDS011;1868;48.918;9.438;2023-03-13T08:51:39;0.60;;;0.60;;
3704;SDS011;1868;48.918;9.438;2023-03-13T08:54:07;3.50;;;2.40;;
3704;SDS011;1868;48.918;9.438;2023-03-13T08:56:36;1.63;;;1.40;;
3704;SDS011;1868;48.918;9.438;2023-03-13T08:59:06;1.27;;;0.60;;
3704;SDS011;1868;48.918;9.438;2023-03-13T09:01:35;0.60;;;0.60;;
3704;SDS011;1868;48.918;9.438;2023-03-13T09:04:05;1.13;;;0.70;;
3704;SDS011;1868;48.918;9.438;2023-03-13T09:06:34;2.00;;;0.70;;
3704;SDS011;1868;48.918;9.438;2023-03-13T09:09:04;2.87;;;0.87;;
3704;SDS011;1868;48.918;9.438;2023-03-13T09:11:35;0.83;;;0.80;;
3704;SDS011;1868;48.918;9.438;2023-03-13T09:14:05;0.60;;;0.57;;
3704;SDS011;1868;48.918;9.438;2023-03-13T09:16:34;1.50;;;0.93;;
3704;SDS011;1868;48.918;9.438;2023-03-13T09:19:04;1.73;;;1.00;;
3704;SDS011;1868;48.918;9.438;2023-03-13T09:21:33;5.30;;;0.90;;
3704;SDS011;1868;48.918;9.438;2023-03-13T09:24:02;0.70;;;0.70;;
3704;SDS011;1868;48.918;9.438;2023-03-13T09:26:31;3.37;;;3.03;;
3704;SDS011;1868;48.918;9.438;2023-03-13T09:28:59;1.67;;;1.30;;
3704;SDS011;1868;48.918;9.438;2023-03-13T09:31:28;2.50;;;0.80;;
3704;SDS011;1868;48.918;9.438;2023-03-13T09:34:00;2.07;;;0.90;;
3704;SDS011;1868;48.918;9.438;2023-03-13T09:36:28;1.23;;;0.60;;
3704;SDS011;1868;48.918;9.438;2023-03-13T09:38:57;1.73;;;1.20;;
3704;SDS011;1868;48.918;9.438;2023-03-13T09:41:28;1.83;;;1.03;;
3704;SDS011;1868;48.918;9.438;2023-03-13T09:44:05;1.93;;;0.90;;
3704;SDS011;1868;48.918;9.438;2023-03-13T09:46:43;0.97;;;0.70;;
3704;SDS011;1868;48.918;9.438;2023-03-13T09:49:22;0.80;;;0.80;;
3704;SDS011;1868;48.918;9.438;2023-03-13T09:52:04;0.83;;;0.83;;
3704;SDS011;1868;48.918;9.438;2023-03-13T09:54:43;1.20;;;0.70;;
3704;SDS011;1868;48.918;9.438;2023-03-13T09:57:21;3.30;;;1.00;;
3704;SDS011;1868;48.918;9.438;2023-03-13T09:59:58;1.90;;;0.77;;
3704;SDS011;1868;48.918;9.438;2023-03-13T10:02:33;1.27;;;0.90;;
3704;SDS011;1868;48.918;9.438;2023-03-13T10:05:12;3.10;;;1.40;;
3704;SDS011;1868;48.918;9.438;2023-03-13T10:07:45;3.63;;;1.80;;
3704;SDS011;1868;48.918;9.438;2023-03-13T10:10:14;1.60;;;0.90;;
3704;SDS011;1868;48.918;9.438;2023-03-13T10:12:44;2.10;;;0.80;;
3704;SDS011;1868;48.918;9.438;2023-03-13T10:15:20;2.97;;;0.80;;
3704;SDS011;1868;48.918;9.438;2023-03-13T10:17:59;1.03;;;0.80;;
3704;SDS011;1868;48.918;9.438;2023-03-13T10:20:42;0.70;;;0.70;;
3704;SDS011;1868;48.918;9.438;2023-03-13T10:23:15;7.43;;;1.10;;
3704;SDS011;1868;48.918;9.438;2023-03-13T10:25:48;1.33;;;0.60;;
3704;SDS011;1868;48.918;9.438;2023-03-13T10:28:16;1.50;;;1.00;;
3704;SDS011;1868;48.918;9.438;2023-03-13T10:30:48;2.23;;;1.10;;
3704;SDS011;1868;48.918;9.438;2023-03-13T10:33:22;0.97;;;0.70;;
3704;SDS011;1868;48.918;9.438;2023-03-13T10:36:01;1.43;;;0.53;;
3704;SDS011;1868;48.918;9.438;2023-03-13T10:38:44;1.20;;;0.73;;
3704;SDS011;1868;48.918;9.438;2023-03-13T10:41:21;0.87;;;0.60;;
3704;SDS011;1868;48.918;9.438;2023-03-13T10:43:54;1.00;;;0.73;;
3704;SDS011;1868;48.918;9.438;2023-03-13T10:46:28;3.37;;;0.83;;
3704;SDS011;1868;48.918;9.438;2023-03-13T10:48:59;1.37;;;0.70;;
3704;SDS011;1868;48.918;9.438;2023-03-13T10:51:34;1.40;;;1.20;;
3704;SDS011;1868;48.918;9.438;2023-03-13T10:59:55;2.73;;;1.77;;
3704;SDS011;1868;48.918;9.438;2023-03-13T11:02:26;3.07;;;1.70;;
3704;SDS011;1868;48.918;9.438;2023-03-13T11:04:59;4.10;;;1.40;;
3704;SDS011;1868;48.918;9.438;2023-03-13T11:07:31;0.87;;;0.80;;
3704;SDS011;1868;48.918;9.438;2023-03-13T11:10:13;0.93;;;0.73;;
3704;SDS011;1868;48.918;9.438;2023-03-13T11:12:47;4.50;;;2.00;;
3704;SDS011;1868;48.918;9.438;2023-03-13T11:15:17;6.13;;;1.17;;
3704;SDS011;1868;48.918;9.438;2023-03-13T11:17:51;1.90;;;1.00;;
3704;SDS011;1868;48.918;9.438;2023-03-13T11:20:26;3.87;;;1.00;;
3704;SDS011;1868;48.918;9.438;2023-03-13T11:23:07;6.33;;;0.80;;
3704;SDS011;1868;48.918;9.438;2023-03-13T11:25:45;0.87;;;0.80;;
3704;SDS011;1868;48.918;9.438;2023-03-13T11:28:27;2.90;;;0.83;;
3704;SDS011;1868;48.918;9.438;2023-03-13T11:31:10;1.50;;;1.03;;
3704;SDS011;1868;48.918;9.438;2023-03-13T11:33:46;1.27;;;0.90;;
3704;SDS011;1868;48.918;9.438;2023-03-13T11:36:25;4.07;;;0.80;;
3704;SDS011;1868;48.918;9.438;2023-03-13T11:39:05;3.83;;;1.30;;
3704;SDS011;1868;48.918;9.438;2023-03-13T11:42:06;1.37;;;1.00;;
3704;SDS011;1868;48.918;9.438;2023-03-13T11:44:46;3.33;;;1.00;;
3704;SDS011;1868;48.918;9.438;2023-03-13T11:47:32;5.17;;;1.00;;
3704;SDS011;1868;48.918;9.438;2023-03-13T11:50:18;0.90;;;0.90;;
3704;SDS011;1868;48.918;9.438;2023-03-13T11:53:12;1.60;;;0.90;;
3704;SDS011;1868;48.918;9.438;2023-03-13T11:56:11;2.60;;;1.00;;
3704;SDS011;1868;48.918;9.438;2023-03-13T11:58:50;1.83;;;0.90;;
3704;SDS011;1868;48.918;9.438;2023-03-13T12:01:31;1.47;;;0.90;;
3704;SDS011;1868;48.918;9.438;2023-03-13T12:04:04;2.57;;;1.07;;
3704;SDS011;1868;48.918;9.438;2023-03-13T12:06:42;1.13;;;0.90;;
3704;SDS011;1868;48.918;9.438;2023-03-13T12:09:18;3.67;;;1.10;;
3704;SDS011;1868;48.918;9.438;2023-03-13T12:11:56;2.07;;;0.90;;
3704;SDS011;1868;48.918;9.438;2023-03-13T12:14:30;1.40;;;1.30;;
3704;SDS011;1868;48.918;9.438;2023-03-13T12:17:03;1.37;;;1.00;;
3704;SDS011;1868;48.918;9.438;2023-03-13T12:19:38;1.23;;;0.80;;
3704;SDS011;1868;48.918;9.438;2023-03-13T12:22:15;2.00;;;0.97;;
3704;SDS011;1868;48.918;9.438;2023-03-13T12:24:48;1.67;;;1.00;;
3704;SDS011;1868;48.918;9.438;2023-03-13T12:27:25;0.83;;;0.80;;
3704;SDS011;1868;48.918;9.438;2023-03-13T12:29:59;1.43;;;0.93;;
3704;SDS011;1868;48.918;9.438;2023-03-13T12:32:33;2.93;;;0.77;;
3704;SDS011;1868;48.918;9.438;2023-03-13T12:35:07;1.77;;;0.97;;
3704;SDS011;1868;48.918;9.438;2023-03-13T12:37:48;2.37;;;0.90;;
3704;SDS011;1868;48.918;9.438;2023-03-13T12:40:22;1.17;;;0.90;;
3704;SDS011;1868;48.918;9.438;2023-03-13T12:43:00;1.97;;;1.40;;
3704;SDS011;1868;48.918;9.438;2023-03-13T12:45:32;1.47;;;0.77;;
3704;SDS011;1868;48.918;9.438;2023-03-13T12:48:22;3.23;;;1.00;;
3704;SDS011;1868;48.918;9.438;2023-03-13T12:51:16;0.63;;;0.63;;
3704;SDS011;1868;48.918;9.438;2023-03-13T12:57:15;2.57;;;0.77;;
3704;SDS011;1868;48.918;9.438;2023-03-13T13:00:12;2.73;;;0.83;;
3704;SDS011;1868;48.918;9.438;2023-03-13T13:02:45;1.13;;;0.77;;
3704;SDS011;1868;48.918;9.438;2023-03-13T13:05:17;1.00;;;0.90;;
3704;SDS011;1868;48.918;9.438;2023-03-13T13:07:51;0.73;;;0.73;;
3704;SDS011;1868;48.918;9.438;2023-03-13T13:10:21;3.00;;;0.73;;
3704;SDS011;1868;48.918;9.438;2023-03-13T13:15:59;1.03;;;0.70;;
3704;SDS011;1868;48.918;9.438;2023-03-13T13:18:31;1.20;;;0.60;;
3704;SDS011;1868;48.918;9.438;2023-03-13T13:21:20;0.97;;;0.73;;
3704;SDS011;1868;48.918;9.438;2023-03-13T13:23:51;3.17;;;1.00;;
3704;SDS011;1868;48.918;9.438;2023-03-13T13:32:42;1.63;;;0.93;;
3704;SDS011;1868;48.918;9.438;2023-03-13T13:35:20;2.47;;;0.90;;
3704;SDS011;1868;48.918;9.438;2023-03-13T13:41:03;2.80;;;1.00;;
3704;SDS011;1868;48.918;9.438;2023-03-13T13:46:55;2.00;;;0.80;;
3704;SDS011;1868;48.918;9.438;2023-03-13T13:49:32;1.90;;;0.93;;
3704;SDS011;1868;48.918;9.438;2023-03-13T13:52:18;3.73;;;1.03;;
3704;SDS011;1868;48.918;9.438;2023-03-13T13:54:59;0.87;;;0.77;;
3704;SDS011;1868;48.918;9.438;2023-03-13T13:57:28;2.43;;;0.80;;
3704;SDS011;1868;48.918;9.438;2023-03-13T14:00:03;2.00;;;0.90;;
3704;SDS011;1868;48.918;9.438;2023-03-13T14:02:47;0.80;;;0.80;;
3704;SDS011;1868;48.918;9.438;2023-03-13T14:05:20;1.13;;;0.77;;
3704;SDS011;1868;48.918;9.438;2023-03-13T14:07:54;1.10;;;0.83;;
3704;SDS011;1868;48.918;9.438;2023-03-13T14:10:32;2.00;;;1.03;;
3704;SDS011;1868;48.918;9.438;2023-03-13T14:13:12;11.07;;;0.80;;
3704;SDS011;1868;48.918;9.438;2023-03-13T14:15:44;3.13;;;2.20;;
3704;SDS011;1868;48.918;9.438;2023-03-13T14:18:15;1.50;;;0.90;;
3704;SDS011;1868;48.918;9.438;2023-03-13T14:20:57;1.30;;;1.20;;
3704;SDS011;1868;48.918;9.438;2023-03-13T14:23:31;2.43;;;0.80;;
3704;SDS011;1868;48.918;9.438;2023-03-13T14:26:09;0.80;;;0.80;;
3704;SDS011;1868;48.918;9.438;2023-03-13T14:28:42;2.00;;;0.83;;
3704;SDS011;1868;48.918;9.438;2023-03-13T14:31:22;2.30;;;0.67;;
3704;SDS011;1868;48.918;9.438;2023-03-13T14:33:54;0.87;;;0.60;;
3704;SDS011;1868;48.918;9.438;2023-03-13T14:36:26;2.83;;;0.80;;
3704;SDS011;1868;48.918;9.438;2023-03-13T14:38:55;1.00;;;0.93;;
3704;SDS011;1868;48.918;9.438;2023-03-13T14:41:29;4.33;;;1.43;;
3704;SDS011;1868;48.918;9.438;2023-03-13T14:44:03;1.27;;;0.80;;
3704;SDS011;1868;48.918;9.438;2023-03-13T14:46:36;0.90;;;0.90;;
3704;SDS011;1868;48.918;9.438;2023-03-13T14:49:14;1.23;;;0.87;;
3704;SDS011;1868;48.918;9.438;2023-03-13T14:51:48;2.67;;;1.00;;
3704;SDS011;1868;48.918;9.438;2023-03-13T14:54:27;1.23;;;1.00;;
3704;SDS011;1868;48.918;9.438;2023-03-13T14:57:01;1.77;;;1.03;;
3704;SDS011;1868;48.918;9.438;2023-03-13T14:59:32;0.93;;;0.60;;
3704;SDS011;1868;48.918;9.438;2023-03-13T15:02:01;0.70;;;0.70;;
3704;SDS011;1868;48.918;9.438;2023-03-13T15:04:47;1.57;;;0.93;;
3704;SDS011;1868;48.918;9.438;2023-03-13T15:07:19;0.83;;;0.80;;
3704;SDS011;1868;48.918;9.438;2023-03-13T15:09:47;1.27;;;0.80;;
3704;SDS011;1868;48.918;9.438;2023-03-13T15:12:17;4.43;;;0.80;;
3704;SDS011;1868;48.918;9.438;2023-03-13T15:14:48;0.87;;;0.73;;
3704;SDS011;1868;48.918;9.438;2023-03-13T15:17:18;3.70;;;0.70;;
3704;SDS011;1868;48.918;9.438;2023-03-13T15:19:49;1.27;;;0.70;;
3704;SDS011;1868;48.918;9.438;2023-03-13T15:22:23;1.50;;;1.00;;
3704;SDS011;1868;48.918;9.438;2023-03-13T15:24:54;1.17;;;0.67;;
3704;SDS011;1868;48.918;9.438;2023-03-13T15:27:32;1.27;;;0.80;;
3704;SDS011;1868;48.918;9.438;2023-03-13T15:30:01;2.10;;;1.10;;
3704;SDS011;1868;48.918;9.438;2023-03-13T15:32:31;1.57;;;0.70;;
3704;SDS011;1868;48.918;9.438;2023-03-13T15:35:04;1.27;;;0.70;;
3704;SDS011;1868;48.918;9.438;2023-03-13T15:37:55;0.93;;;0.80;;
3704;SDS011;1868;48.918;9.438;2023-03-13T15:40:24;2.80;;;1.00;;
3704;SDS011;1868;48.918;9.438;2023-03-13T15:42:56;1.10;;;0.90;;
3704;SDS011;1868;48.918;9.438;2023-03-13T15:45:24;2.93;;;0.90;;
3704;SDS011;1868;48.918;9.438;2023-03-13T15:47:52;3.13;;;0.90;;
3704;SDS011;1868;48.918;9.438;2023-03-13T15:50:21;2.07;;;0.80;;
3704;SDS011;1868;48.918;9.438;2023-03-13T15:52:57;2.20;;;0.97;;
3704;SDS011;1868;48.918;9.438;2023-03-13T15:55:26;5.57;;;1.30;;
3704;SDS011;1868;48.918;9.438;2023-03-13T15:57:56;2.07;;;0.80;;
3704;SDS011;1868;48.918;9.438;2023-03-13T16:00:24;1.60;;;0.80;;
3704;SDS011;1868;48.918;9.438;2023-03-13T16:02:53;0.73;;;0.73;;
3704;SDS011;1868;48.918;9.438;2023-03-13T16:05:21;1.60;;;0.70;;
3704;SDS011;1868;48.918;9.438;2023-03-13T16:07:50;1.33;;;0.77;;
3704;SDS011;1868;48.918;9.438;2023-03-13T16:10:20;3.10;;;0.83;;
3704;SDS011;1868;48.918;9.438;2023-03-13T16:12:52;2.70;;;1.00;;
3704;SDS011;1868;48.918;9.438;2023-03-13T16:15:20;2.40;;;1.20;;
3704;SDS011;1868;48.918;9.438;2023-03-13T16:17:48;1.53;;;0.97;;
3704;SDS011;1868;48.918;9.438;2023-03-13T16:20:18;2.20;;;1.43;;